createdAt,value
2022-10-02T00:01:06.804Z,95848
2022-10-02T00:02:16.486Z,95841
2022-10-02T00:03:25.313Z,95849
2022-10-02T00:04:34.120Z,95846
2022-10-02T00:05:43.771Z,95847
2022-10-02T00:06:53.488Z,95848
2022-10-02T00:08:02.239Z,95848
2022-10-02T00:09:11.927Z,95848
2022-10-02T00:10:20.677Z,95851
2022-10-02T00:11:30.387Z,95852
2022-10-02T00:12:40.090Z,95853
2022-10-02T00:13:49.858Z,95854
2022-10-02T00:14:59.520Z,95856
2022-10-02T00:16:09.375Z,95853
2022-10-02T00:17:19.043Z,95857
2022-10-02T00:18:28.771Z,95860
2022-10-02T00:19:37.471Z,95854
2022-10-02T00:20:47.183Z,95860
2022-10-02T00:21:56.967Z,95862
2022-10-02T00:23:06.685Z,95868
2022-10-02T00:24:15.341Z,95866
2022-10-02T00:25:25.050Z,95862
2022-10-02T00:26:34.996Z,95861
2022-10-02T00:27:43.472Z,95873
2022-10-02T00:28:52.189Z,95883
2022-10-02T00:30:01.837Z,95882
2022-10-02T00:31:10.542Z,95888
2022-10-02T00:32:18.240Z,95883
2022-10-02T00:33:26.944Z,95882
2022-10-02T00:34:36.659Z,95878
2022-10-02T00:35:44.415Z,95884
2022-10-02T00:36:54.125Z,95890
2022-10-02T00:38:02.879Z,95894
2022-10-02T00:39:12.631Z,95900
2022-10-02T00:40:22.323Z,95899
2022-10-02T00:41:30.017Z,95898
2022-10-02T00:42:38.730Z,95906
2022-10-02T00:43:48.453Z,95902
2022-10-02T00:44:58.229Z,95901
2022-10-02T00:46:07.000Z,95906
2022-10-02T00:47:16.728Z,95911
2022-10-02T00:48:25.486Z,95916
2022-10-02T00:49:35.181Z,95919
2022-10-02T00:50:42.968Z,95926
2022-10-02T00:51:51.655Z,95915
2022-10-02T00:53:01.391Z,95923
2022-10-02T00:54:11.116Z,95917
2022-10-02T00:55:19.816Z,95925
2022-10-02T00:56:29.542Z,95920
2022-10-02T00:57:38.239Z,95912
2022-10-02T00:58:47.985Z,95916
2022-10-02T00:59:56.683Z,95913
2022-10-02T01:01:13.599Z,95912
2022-10-02T01:02:22.295Z,95915
2022-10-02T01:03:31.934Z,95911
2022-10-02T01:04:41.621Z,95916
2022-10-02T01:05:51.370Z,95915
2022-10-02T01:07:01.026Z,95916
2022-10-02T01:08:10.727Z,95909
2022-10-02T01:09:20.419Z,95902
2022-10-02T01:10:30.093Z,95901
2022-10-02T01:11:38.773Z,95903
2022-10-02T01:12:47.482Z,95901
2022-10-02T01:13:55.314Z,95890
2022-10-02T01:15:04.984Z,95892
2022-10-02T01:16:13.727Z,95893
2022-10-02T01:17:22.472Z,95898
2022-10-02T01:18:32.060Z,95893
2022-10-02T01:19:39.799Z,95900
2022-10-02T01:20:49.488Z,95899
2022-10-02T01:21:59.210Z,95898
2022-10-02T01:23:07.884Z,95900
2022-10-02T01:24:17.578Z,95904
2022-10-02T01:25:26.389Z,95907
2022-10-02T01:26:35.206Z,95910
2022-10-02T01:27:44.725Z,95918
2022-10-02T01:28:53.381Z,95919
2022-10-02T01:30:03.095Z,95924
2022-10-02T01:31:12.861Z,95926
2022-10-02T01:32:21.454Z,95929
2022-10-02T01:33:31.185Z,95927
2022-10-02T01:34:40.928Z,95928
2022-10-02T01:35:50.606Z,95932
2022-10-02T01:37:00.327Z,95930
2022-10-02T01:38:07.961Z,95939
2022-10-02T01:39:17.618Z,95934
2022-10-02T01:40:26.320Z,95922
2022-10-02T01:41:36.002Z,95925
2022-10-02T01:42:45.769Z,95924
2022-10-02T01:43:52.445Z,95927
2022-10-02T01:45:02.167Z,95926
2022-10-02T01:46:10.905Z,95924
2022-10-02T01:47:19.524Z,95924
2022-10-02T01:48:29.246Z,95921
2022-10-02T01:49:36.945Z,95915
2022-10-02T01:50:45.627Z,95911
2022-10-02T01:51:55.372Z,95915
2022-10-02T01:53:04.027Z,95905
2022-10-02T01:54:13.854Z,95907
2022-10-02T01:55:23.551Z,95905
2022-10-02T01:56:33.439Z,95905
2022-10-02T01:57:42.968Z,95898
2022-10-02T01:58:51.673Z,95898
2022-10-02T02:00:01.420Z,95897
2022-10-02T02:01:11.135Z,95895
2022-10-02T02:02:20.836Z,95901
2022-10-02T02:03:30.476Z,95897
2022-10-02T02:04:39.181Z,95896
2022-10-02T02:05:47.912Z,95887
2022-10-02T02:06:58.581Z,95886
2022-10-02T02:08:07.245Z,95883
2022-10-02T02:09:15.905Z,95884
2022-10-02T02:10:24.612Z,95885
2022-10-02T02:11:34.313Z,95890
2022-10-02T02:12:43.989Z,95892
2022-10-02T02:13:52.691Z,95898
2022-10-02T02:15:01.354Z,95901
2022-10-02T02:16:11.096Z,95907
2022-10-02T02:17:19.902Z,95916
2022-10-02T02:18:29.593Z,95910
2022-10-02T02:19:38.268Z,95923
2022-10-02T02:20:46.949Z,95920
2022-10-02T02:21:56.741Z,95919
2022-10-02T02:23:05.352Z,95915
2022-10-02T02:24:14.001Z,95919
2022-10-02T02:25:23.675Z,95917
2022-10-02T02:26:33.508Z,95925
2022-10-02T02:27:42.044Z,95919
2022-10-02T02:28:50.752Z,95924
2022-10-02T02:30:00.420Z,95926
2022-10-02T02:31:10.164Z,95919
2022-10-02T02:32:17.748Z,95917
2022-10-02T02:33:26.418Z,95916
2022-10-02T02:34:36.116Z,95916
2022-10-02T02:35:44.798Z,95917
2022-10-02T02:36:53.474Z,95920
2022-10-02T02:38:02.256Z,95924
2022-10-02T02:39:11.827Z,95921
2022-10-02T02:40:21.675Z,95912
2022-10-02T02:41:29.377Z,95913
2022-10-02T02:42:38.046Z,95911
2022-10-02T02:43:47.731Z,95911
2022-10-02T02:44:55.394Z,95914
2022-10-02T02:46:04.273Z,95913
2022-10-02T02:47:13.890Z,95913
2022-10-02T02:48:22.572Z,95918
2022-10-02T02:49:32.260Z,95915
2022-10-02T02:50:40.980Z,95920
2022-10-02T02:51:50.717Z,95924
2022-10-02T02:53:00.389Z,95917
2022-10-02T02:54:09.080Z,95919
2022-10-02T02:55:17.730Z,95918
2022-10-02T02:56:25.402Z,95920
2022-10-02T02:57:34.211Z,95917
2022-10-02T02:58:43.872Z,95914
2022-10-02T02:59:52.552Z,95913
2022-10-02T03:01:01.302Z,95913
2022-10-02T03:02:09.935Z,95910
2022-10-02T03:03:19.659Z,95910
2022-10-02T03:04:28.371Z,95909
2022-10-02T03:05:38.054Z,95916
2022-10-02T03:06:46.747Z,95916
2022-10-02T03:07:56.433Z,95912
2022-10-02T03:09:05.167Z,95916
2022-10-02T03:10:14.900Z,95920
2022-10-02T03:11:24.582Z,95921
2022-10-02T03:12:32.308Z,95922
2022-10-02T03:13:42.015Z,95924
2022-10-02T03:14:50.758Z,95917
2022-10-02T03:15:59.482Z,95924
2022-10-02T03:17:10.096Z,95925
2022-10-02T03:18:17.796Z,95927
2022-10-02T03:19:27.491Z,95926
2022-10-02T03:20:37.295Z,95925
2022-10-02T03:21:45.940Z,95924
2022-10-02T03:22:54.629Z,95918
2022-10-02T03:24:03.324Z,95922
2022-10-02T03:25:12.013Z,95924
2022-10-02T03:26:21.762Z,95920
2022-10-02T03:27:34.081Z,95918
2022-10-02T03:28:54.776Z,95923
2022-10-02T03:29:49.663Z,95918
2022-10-02T03:30:57.318Z,95920
2022-10-02T03:32:06.025Z,95921
2022-10-02T03:33:13.723Z,95923
2022-10-02T03:34:23.371Z,95918
2022-10-02T03:35:33.074Z,95917
2022-10-02T03:36:41.795Z,95911
2022-10-02T03:37:51.521Z,95909
2022-10-02T03:39:23.479Z,95913
2022-10-02T03:40:11.915Z,95915
2022-10-02T03:41:21.577Z,95911
2022-10-02T03:42:30.311Z,95916
2022-10-02T03:43:39.009Z,95922
2022-10-02T03:44:47.732Z,95925
2022-10-02T03:45:56.425Z,95918
2022-10-02T03:47:06.111Z,95918
2022-10-02T03:48:13.882Z,95916
2022-10-02T03:49:22.636Z,95918
2022-10-02T03:50:36.167Z,95907
2022-10-02T03:51:42.032Z,95910
2022-10-02T03:52:50.708Z,95902
2022-10-02T03:53:59.373Z,95902
2022-10-02T03:55:09.111Z,95905
2022-10-02T03:56:18.818Z,95906
2022-10-02T03:57:28.507Z,95903
2022-10-02T03:58:37.320Z,95906
2022-10-02T03:59:46.927Z,95902
2022-10-02T04:00:55.664Z,95899
2022-10-02T04:02:05.405Z,95902
2022-10-02T04:03:14.099Z,95894
2022-10-02T04:04:22.717Z,95894
2022-10-02T04:05:32.407Z,95896
2022-10-02T04:06:40.123Z,95898
2022-10-02T04:07:52.731Z,95897
2022-10-02T04:08:59.460Z,95903
2022-10-02T04:10:07.125Z,95900
2022-10-02T04:11:15.811Z,95895
2022-10-02T04:12:25.506Z,95897
2022-10-02T04:13:34.170Z,95894
2022-10-02T04:14:42.872Z,95893
2022-10-02T04:15:52.596Z,95894
2022-10-02T04:17:01.204Z,95894
2022-10-02T04:18:11.001Z,95901
2022-10-02T04:19:19.720Z,95895
2022-10-02T04:20:28.386Z,95897
2022-10-02T04:21:37.073Z,95895
2022-10-02T04:22:45.734Z,95902
2022-10-02T04:23:55.440Z,95899
2022-10-02T04:25:04.134Z,95899
2022-10-02T04:26:12.801Z,95896
2022-10-02T04:27:22.474Z,95897
2022-10-02T04:28:32.192Z,95893
2022-10-02T04:29:40.853Z,95896
2022-10-02T04:30:49.636Z,95895
2022-10-02T04:31:59.334Z,95901
2022-10-02T04:33:08.978Z,95889
2022-10-02T04:34:16.708Z,95893
2022-10-02T04:35:25.417Z,95898
2022-10-02T04:36:35.338Z,95895
2022-10-02T04:37:44.793Z,95892
2022-10-02T04:38:53.467Z,95894
2022-10-02T04:40:02.166Z,95896
2022-10-02T04:41:10.889Z,95890
2022-10-02T04:42:20.626Z,95896
2022-10-02T04:43:28.281Z,95902
2022-10-02T04:44:36.946Z,95895
2022-10-02T04:45:46.735Z,95895
2022-10-02T04:46:54.354Z,95901
2022-10-02T04:48:02.983Z,95899
2022-10-02T04:49:11.693Z,95896
2022-10-02T04:50:20.356Z,95896
2022-10-02T04:51:30.077Z,95896
2022-10-02T04:52:38.801Z,95896
2022-10-02T04:53:47.516Z,95900
2022-10-02T04:54:57.277Z,95899
2022-10-02T04:56:06.920Z,95902
2022-10-02T04:57:15.656Z,95901
2022-10-02T04:58:24.350Z,95897
2022-10-02T04:59:34.043Z,95896
2022-10-02T05:00:43.841Z,95892
2022-10-02T05:01:52.462Z,95891
2022-10-02T05:03:01.156Z,95898
2022-10-02T05:04:10.974Z,95904
2022-10-02T05:05:18.667Z,95896
2022-10-02T05:06:28.463Z,95890
2022-10-02T05:07:38.190Z,95887
2022-10-02T05:08:46.865Z,95884
2022-10-02T05:09:56.556Z,95887
2022-10-02T05:11:05.245Z,95884
2022-10-02T05:12:13.894Z,95884
2022-10-02T05:13:23.630Z,95884
2022-10-02T05:14:33.333Z,95885
2022-10-02T05:15:43.065Z,95893
2022-10-02T05:16:52.726Z,95890
2022-10-02T05:18:02.457Z,95893
2022-10-02T05:19:12.170Z,95890
2022-10-02T05:20:20.805Z,95893
2022-10-02T05:21:29.656Z,95897
2022-10-02T05:22:39.350Z,95898
2022-10-02T05:23:48.031Z,95902
2022-10-02T05:24:56.777Z,95905
2022-10-02T05:26:05.490Z,95904
2022-10-02T05:27:16.183Z,95902
2022-10-02T05:28:26.896Z,95899
2022-10-02T05:29:34.545Z,95892
2022-10-02T05:30:44.256Z,95894
2022-10-02T05:31:54.075Z,95897
2022-10-02T05:33:03.733Z,95894
2022-10-02T05:34:12.404Z,95894
2022-10-02T05:35:21.124Z,95895
2022-10-02T05:36:29.783Z,95901
2022-10-02T05:37:39.438Z,95903
2022-10-02T05:38:47.171Z,95892
2022-10-02T05:39:56.936Z,95897
2022-10-02T05:41:05.625Z,95891
2022-10-02T05:42:15.320Z,95896
2022-10-02T05:43:25.047Z,95896
2022-10-02T05:44:33.741Z,95901
2022-10-02T05:45:42.434Z,95911
2022-10-02T05:46:51.182Z,95904
2022-10-02T05:47:59.825Z,95897
2022-10-02T05:49:09.537Z,95899
2022-10-02T05:50:17.261Z,95896
2022-10-02T05:51:25.947Z,95893
2022-10-02T05:52:35.631Z,95898
2022-10-02T05:53:44.333Z,95891
2022-10-02T05:54:55.004Z,95891
2022-10-02T05:56:03.705Z,95892
2022-10-02T05:57:12.363Z,95891
2022-10-02T05:58:22.042Z,95890
2022-10-02T05:59:29.765Z,95888
2022-10-02T06:00:39.489Z,95892
2022-10-02T06:01:49.268Z,95899
2022-10-02T06:02:57.916Z,95896
2022-10-02T06:04:06.645Z,95898
2022-10-02T06:05:14.320Z,95897
2022-10-02T06:06:24.022Z,95898
2022-10-02T06:07:33.869Z,95901
2022-10-02T06:08:42.525Z,95909
2022-10-02T06:09:52.252Z,95908
2022-10-02T06:11:01.922Z,95908
2022-10-02T06:12:10.610Z,95909
2022-10-02T06:13:19.339Z,95910
2022-10-02T06:14:28.031Z,95912
2022-10-02T06:15:37.720Z,95910
2022-10-02T06:16:47.442Z,95910
2022-10-02T06:17:56.098Z,95910
2022-10-02T06:19:04.799Z,95918
2022-10-02T06:20:14.483Z,95916
2022-10-02T06:21:23.167Z,95916
2022-10-02T06:22:31.821Z,95918
2022-10-02T06:23:40.565Z,95911
2022-10-02T06:24:49.256Z,95917
2022-10-02T06:25:58.925Z,95925
2022-10-02T06:27:07.637Z,95921
2022-10-02T06:28:16.379Z,95928
2022-10-02T06:29:27.281Z,95930
2022-10-02T06:30:34.658Z,95923
2022-10-02T06:31:43.442Z,95929
2022-10-02T06:32:53.126Z,95931
2022-10-02T06:34:02.842Z,95922
2022-10-02T06:35:12.562Z,95925
2022-10-02T06:36:21.284Z,95925
2022-10-02T06:37:29.982Z,95925
2022-10-02T06:38:39.672Z,95922
2022-10-02T06:39:47.393Z,95927
2022-10-02T06:40:56.019Z,95925
2022-10-02T06:42:04.719Z,95926
2022-10-02T06:43:14.366Z,95925
2022-10-02T06:44:24.027Z,95928
2022-10-02T06:45:32.817Z,95929
2022-10-02T06:46:42.447Z,95929
2022-10-02T06:47:53.192Z,95924
2022-10-02T06:49:01.878Z,95924
2022-10-02T06:50:11.594Z,95924
2022-10-02T06:51:20.314Z,95925
2022-10-02T06:52:29.037Z,95920
2022-10-02T06:53:39.814Z,95930
2022-10-02T06:54:49.554Z,95923
2022-10-02T06:55:58.241Z,95923
2022-10-02T06:57:07.945Z,95925
2022-10-02T06:58:16.654Z,95931
2022-10-02T06:59:25.521Z,95937
2022-10-02T07:00:35.252Z,95934
2022-10-02T07:01:43.990Z,95929
2022-10-02T07:02:54.693Z,95930
2022-10-02T07:04:03.457Z,95929
2022-10-02T07:05:12.185Z,95933
2022-10-02T07:06:21.883Z,95935
2022-10-02T07:07:29.552Z,95937
2022-10-02T07:08:39.253Z,95940
2022-10-02T07:09:48.944Z,95935
2022-10-02T07:10:57.754Z,95934
2022-10-02T07:12:07.499Z,95947
2022-10-02T07:13:15.204Z,95934
2022-10-02T07:14:24.882Z,95933
2022-10-02T07:15:34.578Z,95937
2022-10-02T07:16:42.309Z,95932
2022-10-02T07:17:51.988Z,95931
2022-10-02T07:19:01.640Z,95931
2022-10-02T07:20:10.313Z,95930
2022-10-02T07:21:19.977Z,95929
2022-10-02T07:22:43.753Z,95926
2022-10-02T07:23:39.369Z,95925
2022-10-02T07:24:49.038Z,95929
2022-10-02T07:25:58.708Z,95926
2022-10-02T07:27:06.372Z,95932
2022-10-02T07:28:16.250Z,95932
2022-10-02T07:29:25.827Z,95936
2022-10-02T07:30:34.482Z,95932
2022-10-02T07:31:43.231Z,95933
2022-10-02T07:32:51.827Z,95930
2022-10-02T07:34:01.543Z,95935
2022-10-02T07:35:09.213Z,95933
2022-10-02T07:36:17.910Z,95935
2022-10-02T07:37:26.670Z,95937
2022-10-02T07:38:36.344Z,95933
2022-10-02T07:39:46.215Z,95933
2022-10-02T07:40:58.102Z,95932
2022-10-02T07:42:04.589Z,95932
2022-10-02T07:43:13.250Z,95937
2022-10-02T07:44:21.954Z,95930
2022-10-02T07:45:31.659Z,95937
2022-10-02T07:46:39.459Z,95936
2022-10-02T07:47:49.117Z,95932
2022-10-02T07:48:58.816Z,95934
2022-10-02T07:50:08.478Z,95933
2022-10-02T07:51:20.975Z,95933
2022-10-02T07:52:26.930Z,95932
2022-10-02T07:53:35.615Z,95931
2022-10-02T07:54:45.308Z,95932
2022-10-02T07:55:52.989Z,95929
2022-10-02T07:57:03.293Z,95933
2022-10-02T07:58:12.387Z,95930
2022-10-02T07:59:21.090Z,95924
2022-10-02T08:00:30.858Z,95915
2022-10-02T08:01:40.562Z,95917
2022-10-02T08:02:50.293Z,95914
2022-10-02T08:03:59.963Z,95911
2022-10-02T08:05:08.645Z,95913
2022-10-02T08:06:17.325Z,95914
2022-10-02T08:07:26.990Z,95914
2022-10-02T08:08:36.717Z,95923
2022-10-02T08:09:46.431Z,95916
2022-10-02T08:10:55.082Z,95914
2022-10-02T08:12:03.868Z,95919
2022-10-02T08:13:13.579Z,95917
2022-10-02T08:14:22.617Z,95918
2022-10-02T08:15:32.347Z,95914
2022-10-02T08:16:42.279Z,95911
2022-10-02T08:17:51.936Z,95905
2022-10-02T08:19:02.713Z,95906
2022-10-02T08:20:12.494Z,95910
2022-10-02T08:21:22.222Z,95906
2022-10-02T08:22:31.953Z,95903
2022-10-02T08:23:41.726Z,95899
2022-10-02T08:24:51.408Z,95908
2022-10-02T08:26:00.142Z,95904
2022-10-02T08:27:08.811Z,95903
2022-10-02T08:28:18.555Z,95904
2022-10-02T08:29:27.228Z,95901
2022-10-02T08:30:35.943Z,95900
2022-10-02T08:31:45.878Z,95900
2022-10-02T08:32:55.553Z,95903
2022-10-02T08:34:05.274Z,95898
2022-10-02T08:35:15.012Z,95900
2022-10-02T08:36:24.749Z,95903
2022-10-02T08:37:34.498Z,95901
2022-10-02T08:38:44.262Z,95906
2022-10-02T08:39:53.993Z,95909
2022-10-02T08:41:03.765Z,95901
2022-10-02T08:42:12.511Z,95900
2022-10-02T08:43:22.344Z,95893
2022-10-02T08:44:35.494Z,95895
2022-10-02T08:45:40.782Z,95899
2022-10-02T08:46:50.603Z,95895
2022-10-02T08:48:00.322Z,95897
2022-10-02T08:49:10.091Z,95897
2022-10-02T08:50:19.841Z,95891
2022-10-02T08:51:28.551Z,95897
2022-10-02T08:52:38.258Z,95890
2022-10-02T08:53:47.989Z,95890
2022-10-02T08:54:57.728Z,95890
2022-10-02T08:56:07.538Z,95890
2022-10-02T08:57:17.282Z,95891
2022-10-02T08:58:27.004Z,95889
2022-10-02T08:59:36.729Z,95885
2022-10-02T09:00:46.556Z,95879
2022-10-02T09:01:59.634Z,95879
2022-10-02T09:03:06.054Z,95875
2022-10-02T09:04:15.803Z,95877
2022-10-02T09:05:25.513Z,95878
2022-10-02T09:06:35.467Z,95874
2022-10-02T09:07:44.989Z,95872
2022-10-02T09:08:54.724Z,95866
2022-10-02T09:10:04.458Z,95865
2022-10-02T09:11:14.185Z,95861
2022-10-02T09:12:23.937Z,95860
2022-10-02T09:13:32.667Z,95862
2022-10-02T09:14:42.371Z,95858
2022-10-02T09:15:52.108Z,95852
2022-10-02T09:17:01.860Z,95851
2022-10-02T09:18:11.733Z,95849
2022-10-02T09:19:20.439Z,95851
2022-10-02T09:20:29.134Z,95850
2022-10-02T09:21:38.889Z,95851
2022-10-02T09:22:48.632Z,95846
2022-10-02T09:23:58.401Z,95842
2022-10-02T09:25:08.119Z,95839
2022-10-02T09:26:16.867Z,95839
2022-10-02T09:27:26.594Z,95844
2022-10-02T09:28:35.379Z,95842
2022-10-02T09:29:45.150Z,95844
2022-10-02T09:30:54.872Z,95848
2022-10-02T09:32:03.677Z,95848
2022-10-02T09:33:15.924Z,95845
2022-10-02T09:34:23.093Z,95843
2022-10-02T09:35:32.961Z,95843
2022-10-02T09:36:42.724Z,95835
2022-10-02T09:37:51.554Z,95836
2022-10-02T09:39:01.208Z,95828
2022-10-02T09:40:09.922Z,95826
2022-10-02T09:41:19.731Z,95829
2022-10-02T09:42:28.462Z,95826
2022-10-02T09:43:37.219Z,95824
2022-10-02T09:44:47.028Z,95814
2022-10-02T09:45:55.784Z,95815
2022-10-02T09:47:05.458Z,95810
2022-10-02T09:48:15.212Z,95804
2022-10-02T09:49:23.900Z,95809
2022-10-02T09:50:33.636Z,95805
2022-10-02T09:51:43.535Z,95798
2022-10-02T09:52:52.421Z,95800
2022-10-02T09:54:02.134Z,95803
2022-10-02T09:55:11.997Z,95800
2022-10-02T09:56:21.761Z,95798
2022-10-02T09:57:31.512Z,95793
2022-10-02T09:58:40.284Z,95797
2022-10-02T09:59:50.020Z,95793
2022-10-02T10:00:58.758Z,95796
2022-10-02T10:02:08.447Z,95789
2022-10-02T10:03:18.203Z,95790
2022-10-02T10:04:37.932Z,95785
2022-10-02T10:05:38.694Z,95787
2022-10-02T10:06:48.457Z,95785
2022-10-02T10:07:56.127Z,95786
2022-10-02T10:09:04.845Z,95784
2022-10-02T10:10:14.547Z,95780
2022-10-02T10:11:24.262Z,95783
2022-10-02T10:12:33.920Z,95785
2022-10-02T10:13:41.581Z,95784
2022-10-02T10:14:51.253Z,95780
2022-10-02T10:16:00.973Z,95781
2022-10-02T10:17:10.602Z,95783
2022-10-02T10:18:19.262Z,95780
2022-10-02T10:19:28.955Z,95784
2022-10-02T10:20:39.700Z,95787
2022-10-02T10:21:49.446Z,95778
2022-10-02T10:22:57.173Z,95780
2022-10-02T10:24:06.899Z,95778
2022-10-02T10:25:16.650Z,95777
2022-10-02T10:26:26.355Z,95776
2022-10-02T10:27:36.037Z,95779
2022-10-02T10:28:43.747Z,95782
2022-10-02T10:29:52.621Z,95776
2022-10-02T10:31:02.257Z,95766
2022-10-02T10:32:10.935Z,95767
2022-10-02T10:33:19.640Z,95766
2022-10-02T10:34:29.303Z,95764
2022-10-02T10:35:39.001Z,95766
2022-10-02T10:36:48.643Z,95764
2022-10-02T10:37:57.333Z,95762
2022-10-02T10:39:07.182Z,95758
2022-10-02T10:40:16.970Z,95760
2022-10-02T10:41:25.692Z,95756
2022-10-02T10:42:44.885Z,95757
2022-10-02T10:43:45.014Z,95754
2022-10-02T10:44:52.722Z,95749
2022-10-02T10:46:02.533Z,95747
2022-10-02T10:47:11.134Z,95760
2022-10-02T10:48:19.882Z,95754
2022-10-02T10:49:29.624Z,95754
2022-10-02T10:50:37.312Z,95748
2022-10-02T10:51:46.019Z,95745
2022-10-02T10:52:55.668Z,95749
2022-10-02T10:54:03.319Z,95747
2022-10-02T10:55:11.985Z,95754
2022-10-02T10:56:21.689Z,95746
2022-10-02T10:57:31.363Z,95746
2022-10-02T10:58:41.047Z,95745
2022-10-02T10:59:49.784Z,95744
2022-10-02T11:00:59.513Z,95744
2022-10-02T11:02:09.189Z,95741
2022-10-02T11:03:18.843Z,95746
2022-10-02T11:04:28.531Z,95742
2022-10-02T11:05:37.242Z,95740
2022-10-02T11:06:46.257Z,95742
2022-10-02T11:07:55.670Z,95740
2022-10-02T11:09:04.307Z,95739
2022-10-02T11:10:13.977Z,95741
2022-10-02T11:11:24.649Z,95730
2022-10-02T11:12:33.306Z,95732
2022-10-02T11:13:42.085Z,95733
2022-10-02T11:14:51.811Z,95733
2022-10-02T11:16:00.507Z,95726
2022-10-02T11:17:10.199Z,95724
2022-10-02T11:18:18.880Z,95726
2022-10-02T11:19:28.555Z,95729
2022-10-02T11:20:38.241Z,95728
2022-10-02T11:21:47.918Z,95725
2022-10-02T11:22:56.605Z,95726
2022-10-02T11:24:05.311Z,95724
2022-10-02T11:25:13.985Z,95727
2022-10-02T11:26:23.705Z,95733
2022-10-02T11:27:31.376Z,95729
2022-10-02T11:28:41.078Z,95730
2022-10-02T11:29:50.783Z,95727
2022-10-02T11:31:00.477Z,95728
2022-10-02T11:32:09.199Z,95724
2022-10-02T11:33:18.807Z,95719
2022-10-02T11:34:27.484Z,95707
2022-10-02T11:35:36.170Z,95705
2022-10-02T11:36:44.930Z,95710
2022-10-02T11:37:54.640Z,95703
2022-10-02T11:39:04.278Z,95699
2022-10-02T11:40:12.984Z,95692
2022-10-02T11:41:22.677Z,95692
2022-10-02T11:42:30.495Z,95697
2022-10-02T11:43:43.252Z,95687
2022-10-02T11:44:48.805Z,95684
2022-10-02T11:45:58.541Z,95684
2022-10-02T11:47:08.167Z,95690
2022-10-02T11:48:17.834Z,95694
2022-10-02T11:49:26.561Z,95689
2022-10-02T11:50:36.261Z,95684
2022-10-02T11:51:45.946Z,95678
2022-10-02T11:52:54.608Z,95679
2022-10-02T11:54:03.308Z,95665
2022-10-02T11:55:11.978Z,95672
2022-10-02T11:56:21.668Z,95667
2022-10-02T11:57:30.318Z,95673
2022-10-02T11:58:39.984Z,95664
2022-10-02T11:59:49.700Z,95669
2022-10-02T12:00:58.360Z,95666
2022-10-02T12:02:07.180Z,95664
2022-10-02T12:03:16.881Z,95665
2022-10-02T12:04:25.384Z,95660
2022-10-02T12:05:35.118Z,95665
2022-10-02T12:06:42.769Z,95663
2022-10-02T12:07:51.451Z,95663
2022-10-02T12:09:01.112Z,95663
2022-10-02T12:10:10.797Z,95663
2022-10-02T12:11:19.478Z,95662
2022-10-02T12:12:28.185Z,95668
2022-10-02T12:13:36.800Z,95659
2022-10-02T12:14:46.477Z,95655
2022-10-02T12:15:54.126Z,95658
2022-10-02T12:17:02.894Z,95655
2022-10-02T12:18:12.528Z,95650
2022-10-02T12:19:23.217Z,95656
2022-10-02T12:20:31.906Z,95655
2022-10-02T12:21:40.679Z,95663
2022-10-02T12:22:50.377Z,95648
2022-10-02T12:24:00.096Z,95643
2022-10-02T12:25:07.799Z,95635
2022-10-02T12:26:17.480Z,95646
2022-10-02T12:27:27.166Z,95636
2022-10-02T12:28:35.982Z,95637
2022-10-02T12:29:44.640Z,95637
2022-10-02T12:30:53.309Z,95641
2022-10-02T12:32:03.022Z,95633
2022-10-02T12:33:12.692Z,95626
2022-10-02T12:34:20.396Z,95641
2022-10-02T12:35:29.059Z,95623
2022-10-02T12:36:38.774Z,95626
2022-10-02T12:37:47.451Z,95620
2022-10-02T12:38:56.146Z,95621
2022-10-02T12:40:05.856Z,95619
2022-10-02T12:41:14.520Z,95624
2022-10-02T12:42:24.216Z,95614
2022-10-02T12:43:32.989Z,95619
2022-10-02T12:44:41.714Z,95594
2022-10-02T12:45:51.447Z,95608
2022-10-02T12:46:59.130Z,95607
2022-10-02T12:48:07.922Z,95617
2022-10-02T12:49:16.858Z,95621
2022-10-02T12:50:25.513Z,95620
2022-10-02T12:51:35.786Z,95617
2022-10-02T12:52:46.017Z,95625
2022-10-02T12:53:54.706Z,95617
2022-10-02T12:55:04.449Z,95615
2022-10-02T12:56:14.147Z,95620
2022-10-02T12:57:23.859Z,95630
2022-10-02T12:58:32.532Z,95631
2022-10-02T12:59:42.208Z,95618
2022-10-02T13:00:51.905Z,95632
2022-10-02T13:02:00.585Z,95615
2022-10-02T13:03:10.316Z,95605
2022-10-02T13:04:19.914Z,95621
2022-10-02T13:05:28.615Z,95610
2022-10-02T13:06:37.288Z,95618
2022-10-02T13:07:46.953Z,95615
2022-10-02T13:08:56.622Z,95600
2022-10-02T13:10:06.290Z,95608
2022-10-02T13:11:13.966Z,95607
2022-10-02T13:12:22.643Z,95608
2022-10-02T13:13:33.350Z,95605
2022-10-02T13:14:42.069Z,95602
2022-10-02T13:15:51.740Z,95606
2022-10-02T13:17:00.535Z,95612
2022-10-02T13:18:10.091Z,95607
2022-10-02T13:19:19.811Z,95604
2022-10-02T13:20:27.509Z,95603
2022-10-02T13:21:36.393Z,95598
2022-10-02T13:22:45.900Z,95606
2022-10-02T13:23:54.631Z,95603
2022-10-02T13:25:04.319Z,95620
2022-10-02T13:26:14.033Z,95663
2022-10-02T13:27:24.449Z,95676
2022-10-02T13:28:34.377Z,95673
2022-10-02T13:29:43.072Z,95669
2022-10-02T13:30:52.831Z,95671
2022-10-02T13:32:02.704Z,95666
2022-10-02T13:33:11.331Z,95668
2022-10-02T13:34:20.991Z,95662
2022-10-02T13:35:29.654Z,95649
2022-10-02T13:36:38.316Z,95641
2022-10-02T13:37:47.032Z,95645
2022-10-02T13:38:55.703Z,95647
2022-10-02T13:40:05.422Z,95645
2022-10-02T13:41:14.074Z,95647
2022-10-02T13:42:22.726Z,95633
2022-10-02T13:43:32.444Z,95643
2022-10-02T13:44:41.136Z,95660
2022-10-02T13:45:49.914Z,95689
2022-10-02T13:46:59.559Z,95689
2022-10-02T13:48:09.213Z,95693
2022-10-02T13:49:18.939Z,95705
2022-10-02T13:50:27.605Z,95699
2022-10-02T13:51:37.507Z,95705
2022-10-02T13:52:46.935Z,95718
2022-10-02T13:53:55.615Z,95715
2022-10-02T13:55:05.307Z,95712
2022-10-02T13:56:15.626Z,95719
2022-10-02T13:57:22.695Z,95725
2022-10-02T13:58:32.423Z,95726
2022-10-02T13:59:40.198Z,95722
2022-10-02T14:00:48.838Z,95727
2022-10-02T14:01:58.528Z,95740
2022-10-02T14:03:08.195Z,95745
2022-10-02T14:04:17.857Z,95740
2022-10-02T14:05:27.549Z,95735
2022-10-02T14:06:37.234Z,95731
2022-10-02T14:07:46.902Z,95726
2022-10-02T14:08:55.566Z,95733
2022-10-02T14:10:04.354Z,95735
2022-10-02T14:11:13.898Z,95742
2022-10-02T14:12:21.587Z,95745
2022-10-02T14:13:31.258Z,95759
2022-10-02T14:14:39.925Z,95758
2022-10-02T14:15:48.608Z,95758
2022-10-02T14:16:58.270Z,95755
2022-10-02T14:18:04.991Z,95750
2022-10-02T14:19:14.687Z,95762
2022-10-02T14:20:25.344Z,95754
2022-10-02T14:21:33.055Z,95757
2022-10-02T14:22:42.694Z,95757
2022-10-02T14:23:51.439Z,95760
2022-10-02T14:25:00.276Z,95762
2022-10-02T14:26:09.956Z,95761
2022-10-02T14:27:17.654Z,95750
2022-10-02T14:28:26.362Z,95748
2022-10-02T14:29:36.031Z,95748
2022-10-02T14:30:43.747Z,95748
2022-10-02T14:31:53.519Z,95746
2022-10-02T14:33:02.095Z,95744
2022-10-02T14:34:10.807Z,95733
2022-10-02T14:35:20.639Z,95733
2022-10-02T14:36:28.310Z,95730
2022-10-02T14:37:38.014Z,95731
2022-10-02T14:38:47.683Z,95731
2022-10-02T14:39:55.373Z,95733
2022-10-02T14:41:04.080Z,95731
2022-10-02T14:42:12.753Z,95738
2022-10-02T14:43:21.472Z,95742
2022-10-02T14:44:31.222Z,95736
2022-10-02T14:45:39.967Z,95737
2022-10-02T14:46:48.646Z,95743
2022-10-02T14:47:58.328Z,95741
2022-10-02T14:49:06.008Z,95742
2022-10-02T14:50:15.678Z,95750
2022-10-02T14:51:24.368Z,95760